sensor_id;sensor_type;location;lat;lon;timestamp;temperature;humidity
15452;DHT22;7827;53.594;9.938;2023-08-06T00:00:30;17.50;1.00
15452;DHT22;7827;53.594;9.938;2023-08-06T00:02:58;17.40;1.00
15452;DHT22;7827;53.594;9.938;2023-08-06T00:05:27;17.40;1.00
15452;DHT22;7827;53.594;9.938;2023-08-06T00:07:57;17.40;1.00
15452;DHT22;7827;53.594;9.938;2023-08-06T00:10:25;17.30;1.00
15452;DHT22;7827;53.594;9.938;2023-08-06T00:12:54;17.20;1.00
15452;DHT22;7827;53.594;9.938;2023-08-06T00:15:22;17.20;1.00
15452;DHT22;7827;53.594;9.938;2023-08-06T00:17:50;17.20;11.30
15452;DHT22;7827;53.594;9.938;2023-08-06T00:20:19;17.10;2.70
15452;DHT22;7827;53.594;9.938;2023-08-06T00:22:47;17.00;26.00
15452;DHT22;7827;53.594;9.938;2023-08-06T00:25:17;16.90;37.50
15452;DHT22;7827;53.594;9.938;2023-08-06T00:27:46;16.90;74.70
15452;DHT22;7827;53.594;9.938;2023-08-06T00:30:14;16.90;58.10
15452;DHT22;7827;53.594;9.938;2023-08-06T00:32:43;16.80;76.20
15452;DHT22;7827;53.594;9.938;2023-08-06T00:35:12;16.80;73.00
15452;DHT22;7827;53.594;9.938;2023-08-06T00:37:41;16.80;91.10
15452;DHT22;7827;53.594;9.938;2023-08-06T00:40:09;16.70;99.90
15452;DHT22;7827;53.594;9.938;2023-08-06T00:42:39;16.80;99.90
15452;DHT22;7827;53.594;9.938;2023-08-06T00:45:08;17.00;98.20
15452;DHT22;7827;53.594;9.938;2023-08-06T00:47:37;17.10;64.70
15452;DHT22;7827;53.594;9.938;2023-08-06T00:50:07;17.00;75.20
15452;DHT22;7827;53.594;9.938;2023-08-06T00:52:37;17.00;99.90
15452;DHT22;7827;53.594;9.938;2023-08-06T00:55:06;16.90;99.90
15452;DHT22;7827;53.594;9.938;2023-08-06T00:57:35;16.90;99.90
15452;DHT22;7827;53.594;9.938;2023-08-06T01:00:06;16.80;99.90
15452;DHT22;7827;53.594;9.938;2023-08-06T01:02:36;16.90;99.90
15452;DHT22;7827;53.594;9.938;2023-08-06T01:05:05;16.90;99.90
15452;DHT22;7827;53.594;9.938;2023-08-06T01:07:43;17.00;99.90
15452;DHT22;7827;53.594;9.938;2023-08-06T01:10:25;16.90;99.90
15452;DHT22;7827;53.594;9.938;2023-08-06T01:13:11;16.80;99.90
15452;DHT22;7827;53.594;9.938;2023-08-06T01:15:49;16.80;99.90
15452;DHT22;7827;53.594;9.938;2023-08-06T01:18:24;16.80;99.90
15452;DHT22;7827;53.594;9.938;2023-08-06T01:20:54;16.90;99.90
15452;DHT22;7827;53.594;9.938;2023-08-06T01:23:23;16.90;99.90
15452;DHT22;7827;53.594;9.938;2023-08-06T01:28:59;17.00;99.90
15452;DHT22;7827;53.594;9.938;2023-08-06T01:31:36;17.10;99.90
15452;DHT22;7827;53.594;9.938;2023-08-06T01:34:09;17.10;99.90
15452;DHT22;7827;53.594;9.938;2023-08-06T01:36:43;17.00;99.90
15452;DHT22;7827;53.594;9.938;2023-08-06T01:39:11;17.00;99.90
15452;DHT22;7827;53.594;9.938;2023-08-06T01:41:40;17.00;99.90
15452;DHT22;7827;53.594;9.938;2023-08-06T01:44:09;17.00;99.90
15452;DHT22;7827;53.594;9.938;2023-08-06T01:46:37;17.00;99.90
15452;DHT22;7827;53.594;9.938;2023-08-06T01:49:07;17.00;99.90
15452;DHT22;7827;53.594;9.938;2023-08-06T01:51:35;17.00;99.90
15452;DHT22;7827;53.594;9.938;2023-08-06T01:54:04;16.90;99.90
15452;DHT22;7827;53.594;9.938;2023-08-06T01:56:33;16.80;99.90
15452;DHT22;7827;53.594;9.938;2023-08-06T01:59:01;16.80;99.90
15452;DHT22;7827;53.594;9.938;2023-08-06T02:01:31;16.80;99.90
15452;DHT22;7827;53.594;9.938;2023-08-06T02:03:59;16.80;99.90
15452;DHT22;7827;53.594;9.938;2023-08-06T02:06:28;16.90;99.90
15452;DHT22;7827;53.594;9.938;2023-08-06T02:08:57;17.00;99.90
15452;DHT22;7827;53.594;9.938;2023-08-06T02:11:26;17.00;99.90
15452;DHT22;7827;53.594;9.938;2023-08-06T02:13:55;16.90;99.90
15452;DHT22;7827;53.594;9.938;2023-08-06T02:16:24;16.90;99.90
15452;DHT22;7827;53.594;9.938;2023-08-06T02:18:52;16.90;99.90
15452;DHT22;7827;53.594;9.938;2023-08-06T02:21:26;17.00;99.90
15452;DHT22;7827;53.594;9.938;2023-08-06T02:23:55;17.00;99.90
15452;DHT22;7827;53.594;9.938;2023-08-06T02:26:23;17.00;99.90
15452;DHT22;7827;53.594;9.938;2023-08-06T02:28:53;17.00;99.90
15452;DHT22;7827;53.594;9.938;2023-08-06T02:31:21;16.90;99.90
15452;DHT22;7827;53.594;9.938;2023-08-06T02:33:50;16.80;99.90
15452;DHT22;7827;53.594;9.938;2023-08-06T02:36:18;16.70;99.90
15452;DHT22;7827;53.594;9.938;2023-08-06T02:38:47;16.60;99.90
15452;DHT22;7827;53.594;9.938;2023-08-06T02:41:15;16.50;99.90
15452;DHT22;7827;53.594;9.938;2023-08-06T02:43:44;16.40;99.90
15452;DHT22;7827;53.594;9.938;2023-08-06T02:46:13;16.40;99.90
15452;DHT22;7827;53.594;9.938;2023-08-06T02:48:42;16.40;99.90
15452;DHT22;7827;53.594;9.938;2023-08-06T02:51:10;16.50;99.90
15452;DHT22;7827;53.594;9.938;2023-08-06T02:53:38;16.40;99.90
15452;DHT22;7827;53.594;9.938;2023-08-06T02:56:10;16.40;99.90
15452;DHT22;7827;53.594;9.938;2023-08-06T02:59:11;16.40;99.90
15452;DHT22;7827;53.594;9.938;2023-08-06T03:01:53;16.40;99.90
15452;DHT22;7827;53.594;9.938;2023-08-06T03:04:29;16.50;99.90
15452;DHT22;7827;53.594;9.938;2023-08-06T03:06:58;16.50;99.90
15452;DHT22;7827;53.594;9.938;2023-08-06T03:09:35;16.40;99.90
15452;DHT22;7827;53.594;9.938;2023-08-06T03:12:04;16.50;99.90
15452;DHT22;7827;53.594;9.938;2023-08-06T03:14:33;16.50;99.90
15452;DHT22;7827;53.594;9.938;2023-08-06T03:17:06;16.60;99.90
15452;DHT22;7827;53.594;9.938;2023-08-06T03:19:36;16.50;99.90
15452;DHT22;7827;53.594;9.938;2023-08-06T03:22:05;16.60;99.90
15452;DHT22;7827;53.594;9.938;2023-08-06T03:24:35;16.70;99.90
15452;DHT22;7827;53.594;9.938;2023-08-06T03:27:05;16.60;99.90
15452;DHT22;7827;53.594;9.938;2023-08-06T03:29:35;16.60;99.90
15452;DHT22;7827;53.594;9.938;2023-08-06T03:32:06;16.70;99.90
15452;DHT22;7827;53.594;9.938;2023-08-06T03:34:35;16.60;99.90
15452;DHT22;7827;53.594;9.938;2023-08-06T03:37:04;16.50;99.90
15452;DHT22;7827;53.594;9.938;2023-08-06T03:39:33;16.50;99.90
15452;DHT22;7827;53.594;9.938;2023-08-06T03:42:02;16.50;99.90
15452;DHT22;7827;53.594;9.938;2023-08-06T03:44:30;16.40;99.90
15452;DHT22;7827;53.594;9.938;2023-08-06T03:46:59;16.30;99.90
15452;DHT22;7827;53.594;9.938;2023-08-06T03:49:29;16.40;99.90
15452;DHT22;7827;53.594;9.938;2023-08-06T03:51:57;16.30;99.90
15452;DHT22;7827;53.594;9.938;2023-08-06T03:54:26;16.40;99.90
15452;DHT22;7827;53.594;9.938;2023-08-06T03:56:55;16.50;99.90
15452;DHT22;7827;53.594;9.938;2023-08-06T03:59:24;16.60;99.90
15452;DHT22;7827;53.594;9.938;2023-08-06T04:01:52;16.60;99.90
15452;DHT22;7827;53.594;9.938;2023-08-06T04:04:21;16.50;99.90
15452;DHT22;7827;53.594;9.938;2023-08-06T04:06:51;16.40;99.90
15452;DHT22;7827;53.594;9.938;2023-08-06T04:09:21;16.40;99.90
15452;DHT22;7827;53.594;9.938;2023-08-06T04:11:50;16.30;99.90
15452;DHT22;7827;53.594;9.938;2023-08-06T04:14:19;16.30;99.90
15452;DHT22;7827;53.594;9.938;2023-08-06T04:16:47;16.30;99.90
15452;DHT22;7827;53.594;9.938;2023-08-06T04:19:15;16.30;99.90
15452;DHT22;7827;53.594;9.938;2023-08-06T04:21:44;16.20;99.90
15452;DHT22;7827;53.594;9.938;2023-08-06T04:24:14;16.20;99.90
15452;DHT22;7827;53.594;9.938;2023-08-06T04:26:42;16.20;99.90
15452;DHT22;7827;53.594;9.938;2023-08-06T04:29:11;16.20;99.90
15452;DHT22;7827;53.594;9.938;2023-08-06T04:31:40;16.20;99.90
15452;DHT22;7827;53.594;9.938;2023-08-06T04:34:08;16.20;99.90
15452;DHT22;7827;53.594;9.938;2023-08-06T04:36:38;16.30;99.90
15452;DHT22;7827;53.594;9.938;2023-08-06T04:39:08;16.20;99.90
15452;DHT22;7827;53.594;9.938;2023-08-06T04:41:38;16.30;99.90
15452;DHT22;7827;53.594;9.938;2023-08-06T04:44:06;16.20;99.90
15452;DHT22;7827;53.594;9.938;2023-08-06T04:46:35;16.20;99.90
15452;DHT22;7827;53.594;9.938;2023-08-06T04:49:03;16.10;99.90
15452;DHT22;7827;53.594;9.938;2023-08-06T04:51:31;16.10;99.90
15452;DHT22;7827;53.594;9.938;2023-08-06T04:54:00;16.10;99.90
15452;DHT22;7827;53.594;9.938;2023-08-06T04:56:29;16.10;99.90
15452;DHT22;7827;53.594;9.938;2023-08-06T04:59:00;16.20;99.90
15452;DHT22;7827;53.594;9.938;2023-08-06T05:01:28;16.30;99.90
15452;DHT22;7827;53.594;9.938;2023-08-06T05:03:57;16.30;99.90
15452;DHT22;7827;53.594;9.938;2023-08-06T05:06:25;16.40;99.90
15452;DHT22;7827;53.594;9.938;2023-08-06T05:08:54;16.40;99.90
15452;DHT22;7827;53.594;9.938;2023-08-06T05:11:22;16.40;99.90
15452;DHT22;7827;53.594;9.938;2023-08-06T05:13:51;16.40;99.90
15452;DHT22;7827;53.594;9.938;2023-08-06T05:16:20;16.30;99.90
15452;DHT22;7827;53.594;9.938;2023-08-06T05:18:49;16.20;99.90
15452;DHT22;7827;53.594;9.938;2023-08-06T05:21:17;16.10;99.90
15452;DHT22;7827;53.594;9.938;2023-08-06T05:23:45;16.10;99.90
15452;DHT22;7827;53.594;9.938;2023-08-06T05:26:14;16.20;99.90
15452;DHT22;7827;53.594;9.938;2023-08-06T05:28:45;16.10;99.90
15452;DHT22;7827;53.594;9.938;2023-08-06T05:31:13;16.20;99.90
15452;DHT22;7827;53.594;9.938;2023-08-06T05:33:43;16.20;99.90
15452;DHT22;7827;53.594;9.938;2023-08-06T05:36:11;16.20;99.90
15452;DHT22;7827;53.594;9.938;2023-08-06T05:38:40;16.10;99.90
15452;DHT22;7827;53.594;9.938;2023-08-06T05:41:08;16.10;99.90
15452;DHT22;7827;53.594;9.938;2023-08-06T05:43:36;16.20;99.90
15452;DHT22;7827;53.594;9.938;2023-08-06T05:46:05;16.20;99.90
15452;DHT22;7827;53.594;9.938;2023-08-06T05:48:33;16.30;99.90
15452;DHT22;7827;53.594;9.938;2023-08-06T05:51:03;16.40;99.90
15452;DHT22;7827;53.594;9.938;2023-08-06T05:53:32;16.50;99.90
15452;DHT22;7827;53.594;9.938;2023-08-06T05:56:00;16.50;99.90
15452;DHT22;7827;53.594;9.938;2023-08-06T05:58:28;16.50;99.90
15452;DHT22;7827;53.594;9.938;2023-08-06T06:00:57;16.50;99.90
15452;DHT22;7827;53.594;9.938;2023-08-06T06:03:26;16.50;99.90
15452;DHT22;7827;53.594;9.938;2023-08-06T06:05:54;16.50;99.90
15452;DHT22;7827;53.594;9.938;2023-08-06T06:08:24;16.40;99.90
15452;DHT22;7827;53.594;9.938;2023-08-06T06:10:52;16.40;99.90
15452;DHT22;7827;53.594;9.938;2023-08-06T06:13:21;16.40;99.90
15452;DHT22;7827;53.594;9.938;2023-08-06T06:15:49;16.40;99.90
15452;DHT22;7827;53.594;9.938;2023-08-06T06:18:18;16.40;99.90
15452;DHT22;7827;53.594;9.938;2023-08-06T06:20:46;16.30;99.90
15452;DHT22;7827;53.594;9.938;2023-08-06T06:23:14;16.40;99.90
15452;DHT22;7827;53.594;9.938;2023-08-06T06:25:47;16.50;99.90
15452;DHT22;7827;53.594;9.938;2023-08-06T06:28:18;16.50;99.90
15452;DHT22;7827;53.594;9.938;2023-08-06T06:30:48;16.60;99.90
15452;DHT22;7827;53.594;9.938;2023-08-06T06:33:16;16.70;99.90
15452;DHT22;7827;53.594;9.938;2023-08-06T06:35:45;16.70;99.90
15452;DHT22;7827;53.594;9.938;2023-08-06T06:38:13;16.60;99.90
15452;DHT22;7827;53.594;9.938;2023-08-06T06:40:42;16.60;99.90
15452;DHT22;7827;53.594;9.938;2023-08-06T06:43:11;16.70;99.90
15452;DHT22;7827;53.594;9.938;2023-08-06T06:45:39;16.70;99.90
15452;DHT22;7827;53.594;9.938;2023-08-06T06:48:08;16.90;99.90
15452;DHT22;7827;53.594;9.938;2023-08-06T06:50:36;16.90;99.90
15452;DHT22;7827;53.594;9.938;2023-08-06T06:53:06;16.90;99.90
15452;DHT22;7827;53.594;9.938;2023-08-06T06:55:34;16.90;99.90
15452;DHT22;7827;53.594;9.938;2023-08-06T06:58:04;16.90;90.80
15452;DHT22;7827;53.594;9.938;2023-08-06T07:00:32;16.90;99.90
15452;DHT22;7827;53.594;9.938;2023-08-06T07:03:00;16.90;99.90
15452;DHT22;7827;53.594;9.938;2023-08-06T07:05:29;16.90;99.90
15452;DHT22;7827;53.594;9.938;2023-08-06T07:07:57;16.90;99.90
15452;DHT22;7827;53.594;9.938;2023-08-06T07:10:26;16.90;99.90
15452;DHT22;7827;53.594;9.938;2023-08-06T07:12:54;17.00;99.90
15452;DHT22;7827;53.594;9.938;2023-08-06T07:15:24;17.00;99.90
15452;DHT22;7827;53.594;9.938;2023-08-06T07:17:52;17.00;91.80
15452;DHT22;7827;53.594;9.938;2023-08-06T07:20:21;17.00;99.00
15452;DHT22;7827;53.594;9.938;2023-08-06T07:22:49;17.00;87.50
15452;DHT22;7827;53.594;9.938;2023-08-06T07:25:18;17.10;90.20
15452;DHT22;7827;53.594;9.938;2023-08-06T07:27:46;17.10;15.70
15452;DHT22;7827;53.594;9.938;2023-08-06T07:30:14;17.00;62.30
15452;DHT22;7827;53.594;9.938;2023-08-06T07:32:45;17.00;39.60
15452;DHT22;7827;53.594;9.938;2023-08-06T07:35:13;17.10;92.00
15452;DHT22;7827;53.594;9.938;2023-08-06T07:37:42;17.20;68.10
15452;DHT22;7827;53.594;9.938;2023-08-06T07:40:11;17.40;54.60
15452;DHT22;7827;53.594;9.938;2023-08-06T07:42:39;17.40;30.70
15452;DHT22;7827;53.594;9.938;2023-08-06T07:45:09;17.50;30.70
15452;DHT22;7827;53.594;9.938;2023-08-06T07:47:37;17.50;81.70
15452;DHT22;7827;53.594;9.938;2023-08-06T07:50:08;17.50;36.70
15452;DHT22;7827;53.594;9.938;2023-08-06T07:52:36;17.60;87.80
15452;DHT22;7827;53.594;9.938;2023-08-06T07:55:05;17.70;25.60
15452;DHT22;7827;53.594;9.938;2023-08-06T07:57:34;17.70;5.80
15452;DHT22;7827;53.594;9.938;2023-08-06T08:00:03;17.70;11.80
15452;DHT22;7827;53.594;9.938;2023-08-06T08:02:38;17.70;1.00
15452;DHT22;7827;53.594;9.938;2023-08-06T08:05:08;17.70;4.60
15452;DHT22;7827;53.594;9.938;2023-08-06T08:07:37;17.80;28.60
15452;DHT22;7827;53.594;9.938;2023-08-06T08:10:06;17.80;31.70
15452;DHT22;7827;53.594;9.938;2023-08-06T08:12:35;17.70;15.70
15452;DHT22;7827;53.594;9.938;2023-08-06T08:15:04;17.90;18.10
15452;DHT22;7827;53.594;9.938;2023-08-06T08:17:33;17.80;1.00
15452;DHT22;7827;53.594;9.938;2023-08-06T08:20:02;18.00;15.30
15452;DHT22;7827;53.594;9.938;2023-08-06T08:22:33;18.10;1.00
15452;DHT22;7827;53.594;9.938;2023-08-06T08:25:01;18.10;1.00
15452;DHT22;7827;53.594;9.938;2023-08-06T08:27:30;18.10;1.00
15452;DHT22;7827;53.594;9.938;2023-08-06T08:29:58;18.10;1.00
15452;DHT22;7827;53.594;9.938;2023-08-06T08:32:27;18.20;1.00
15452;DHT22;7827;53.594;9.938;2023-08-06T08:34:55;18.20;1.00
15452;DHT22;7827;53.594;9.938;2023-08-06T08:37:24;18.30;1.00
15452;DHT22;7827;53.594;9.938;2023-08-06T08:39:53;18.40;1.00
15452;DHT22;7827;53.594;9.938;2023-08-06T08:42:22;18.30;1.00
15452;DHT22;7827;53.594;9.938;2023-08-06T08:44:52;18.30;1.00
15452;DHT22;7827;53.594;9.938;2023-08-06T08:47:22;18.20;1.00
15452;DHT22;7827;53.594;9.938;2023-08-06T08:49:54;18.10;1.00
15452;DHT22;7827;53.594;9.938;2023-08-06T08:52:23;18.00;1.00
15452;DHT22;7827;53.594;9.938;2023-08-06T08:54:56;18.00;1.00
15452;DHT22;7827;53.594;9.938;2023-08-06T08:57:26;17.80;1.00
15452;DHT22;7827;53.594;9.938;2023-08-06T08:59:54;17.90;17.50
15452;DHT22;7827;53.594;9.938;2023-08-06T09:02:23;18.00;1.00
15452;DHT22;7827;53.594;9.938;2023-08-06T09:04:56;18.00;1.00
15452;DHT22;7827;53.594;9.938;2023-08-06T09:07:32;17.90;1.00
15452;DHT22;7827;53.594;9.938;2023-08-06T09:10:07;18.00;1.00
15452;DHT22;7827;53.594;9.938;2023-08-06T09:12:38;18.00;1.00
15452;DHT22;7827;53.594;9.938;2023-08-06T09:15:08;17.90;1.00
15452;DHT22;7827;53.594;9.938;2023-08-06T09:17:36;17.90;1.00
15452;DHT22;7827;53.594;9.938;2023-08-06T09:20:12;18.00;13.30
15452;DHT22;7827;53.594;9.938;2023-08-06T09:22:42;18.10;1.00
15452;DHT22;7827;53.594;9.938;2023-08-06T09:25:21;18.20;1.00
15452;DHT22;7827;53.594;9.938;2023-08-06T09:27:51;18.20;1.00
15452;DHT22;7827;53.594;9.938;2023-08-06T09:30:30;18.00;1.00
15452;DHT22;7827;53.594;9.938;2023-08-06T09:32:59;18.00;1.00
15452;DHT22;7827;53.594;9.938;2023-08-06T09:35:28;18.10;1.00
15452;DHT22;7827;53.594;9.938;2023-08-06T09:38:05;18.10;1.00
15452;DHT22;7827;53.594;9.938;2023-08-06T09:40:40;18.20;1.00
15452;DHT22;7827;53.594;9.938;2023-08-06T09:43:08;18.20;1.00
15452;DHT22;7827;53.594;9.938;2023-08-06T09:45:37;18.30;1.00
15452;DHT22;7827;53.594;9.938;2023-08-06T09:48:07;18.30;1.00
15452;DHT22;7827;53.594;9.938;2023-08-06T09:50:37;18.20;1.00
15452;DHT22;7827;53.594;9.938;2023-08-06T09:53:07;18.00;1.00
15452;DHT22;7827;53.594;9.938;2023-08-06T09:55:36;18.10;1.00
15452;DHT22;7827;53.594;9.938;2023-08-06T09:58:07;18.10;1.00
15452;DHT22;7827;53.594;9.938;2023-08-06T10:00:36;18.00;1.00
15452;DHT22;7827;53.594;9.938;2023-08-06T10:03:06;18.10;1.00
15452;DHT22;7827;53.594;9.938;2023-08-06T10:05:38;18.00;1.00
15452;DHT22;7827;53.594;9.938;2023-08-06T10:08:07;18.00;1.00
15452;DHT22;7827;53.594;9.938;2023-08-06T10:10:35;18.00;1.00
15452;DHT22;7827;53.594;9.938;2023-08-06T10:13:06;17.90;1.00
15452;DHT22;7827;53.594;9.938;2023-08-06T10:15:36;17.80;3.10
15452;DHT22;7827;53.594;9.938;2023-08-06T10:18:06;17.70;38.30
15452;DHT22;7827;53.594;9.938;2023-08-06T10:20:36;17.80;3.40
15452;DHT22;7827;53.594;9.938;2023-08-06T10:23:05;17.90;19.60
15452;DHT22;7827;53.594;9.938;2023-08-06T10:25:35;17.90;43.20
15452;DHT22;7827;53.594;9.938;2023-08-06T10:28:10;17.90;56.80
15452;DHT22;7827;53.594;9.938;2023-08-06T10:30:44;18.10;1.50
15452;DHT22;7827;53.594;9.938;2023-08-06T10:33:14;18.00;19.70
15452;DHT22;7827;53.594;9.938;2023-08-06T10:35:44;17.90;20.10
15452;DHT22;7827;53.594;9.938;2023-08-06T10:38:17;18.00;27.30
15452;DHT22;7827;53.594;9.938;2023-08-06T10:40:50;18.00;52.60
15452;DHT22;7827;53.594;9.938;2023-08-06T10:43:32;17.90;46.80
15452;DHT22;7827;53.594;9.938;2023-08-06T10:46:02;17.90;54.60
15452;DHT22;7827;53.594;9.938;2023-08-06T10:48:34;17.90;29.40
15452;DHT22;7827;53.594;9.938;2023-08-06T10:51:07;17.90;36.90
15452;DHT22;7827;53.594;9.938;2023-08-06T10:53:36;17.90;32.80
15452;DHT22;7827;53.594;9.938;2023-08-06T10:56:12;17.90;41.10
15452;DHT22;7827;53.594;9.938;2023-08-06T10:58:42;17.90;44.40
15452;DHT22;7827;53.594;9.938;2023-08-06T11:01:12;17.80;56.90
15452;DHT22;7827;53.594;9.938;2023-08-06T11:03:42;17.80;77.00
15452;DHT22;7827;53.594;9.938;2023-08-06T11:06:11;17.80;40.90
15452;DHT22;7827;53.594;9.938;2023-08-06T11:08:48;17.70;68.00
15452;DHT22;7827;53.594;9.938;2023-08-06T11:11:18;17.60;77.60
15452;DHT22;7827;53.594;9.938;2023-08-06T11:13:50;17.70;98.40
15452;DHT22;7827;53.594;9.938;2023-08-06T11:16:21;17.60;97.00
15452;DHT22;7827;53.594;9.938;2023-08-06T11:18:51;17.70;99.90
15452;DHT22;7827;53.594;9.938;2023-08-06T11:21:21;17.80;99.90
15452;DHT22;7827;53.594;9.938;2023-08-06T11:23:51;18.00;61.50
15452;DHT22;7827;53.594;9.938;2023-08-06T11:26:21;17.90;43.90
15452;DHT22;7827;53.594;9.938;2023-08-06T11:28:52;18.00;48.90
15452;DHT22;7827;53.594;9.938;2023-08-06T11:31:21;18.00;74.10
15452;DHT22;7827;53.594;9.938;2023-08-06T11:33:50;17.90;52.80
15452;DHT22;7827;53.594;9.938;2023-08-06T11:36:29;17.90;66.90
15452;DHT22;7827;53.594;9.938;2023-08-06T11:38:58;17.80;97.40
15452;DHT22;7827;53.594;9.938;2023-08-06T11:41:28;17.90;99.90
15452;DHT22;7827;53.594;9.938;2023-08-06T11:43:58;17.90;99.90
15452;DHT22;7827;53.594;9.938;2023-08-06T11:46:27;17.90;99.90
15452;DHT22;7827;53.594;9.938;2023-08-06T11:48:58;18.10;99.90
15452;DHT22;7827;53.594;9.938;2023-08-06T11:51:27;18.00;91.40
15452;DHT22;7827;53.594;9.938;2023-08-06T11:53:56;18.00;70.40
15452;DHT22;7827;53.594;9.938;2023-08-06T11:56:25;18.10;65.10
15452;DHT22;7827;53.594;9.938;2023-08-06T11:58:55;18.00;98.00
15452;DHT22;7827;53.594;9.938;2023-08-06T12:01:26;18.10;90.50
15452;DHT22;7827;53.594;9.938;2023-08-06T12:03:58;18.20;95.60
15452;DHT22;7827;53.594;9.938;2023-08-06T12:06:27;18.20;92.20
15452;DHT22;7827;53.594;9.938;2023-08-06T12:08:56;18.10;89.50
15452;DHT22;7827;53.594;9.938;2023-08-06T12:11:24;18.20;90.60
15452;DHT22;7827;53.594;9.938;2023-08-06T12:13:52;18.20;73.70
15452;DHT22;7827;53.594;9.938;2023-08-06T12:16:25;18.40;95.60
15452;DHT22;7827;53.594;9.938;2023-08-06T12:18:53;18.40;28.30
15452;DHT22;7827;53.594;9.938;2023-08-06T12:21:21;18.40;51.60
15452;DHT22;7827;53.594;9.938;2023-08-06T12:23:50;18.60;47.00
15452;DHT22;7827;53.594;9.938;2023-08-06T12:26:18;18.70;1.00
15452;DHT22;7827;53.594;9.938;2023-08-06T12:28:46;18.60;1.00
15452;DHT22;7827;53.594;9.938;2023-08-06T12:31:16;18.60;1.00
15452;DHT22;7827;53.594;9.938;2023-08-06T12:33:46;18.50;1.10
15452;DHT22;7827;53.594;9.938;2023-08-06T12:36:14;18.60;45.70
15452;DHT22;7827;53.594;9.938;2023-08-06T12:38:42;18.70;6.90
15452;DHT22;7827;53.594;9.938;2023-08-06T12:41:11;18.70;1.00
15452;DHT22;7827;53.594;9.938;2023-08-06T12:43:39;18.80;1.00
15452;DHT22;7827;53.594;9.938;2023-08-06T12:46:07;18.90;1.00
15452;DHT22;7827;53.594;9.938;2023-08-06T12:48:37;18.90;1.00
15452;DHT22;7827;53.594;9.938;2023-08-06T12:51:06;19.30;1.00
15452;DHT22;7827;53.594;9.938;2023-08-06T12:53:35;19.20;1.00
15452;DHT22;7827;53.594;9.938;2023-08-06T12:56:03;19.20;1.00
15452;DHT22;7827;53.594;9.938;2023-08-06T12:58:32;19.20;1.00
15452;DHT22;7827;53.594;9.938;2023-08-06T13:01:00;19.10;1.00
15452;DHT22;7827;53.594;9.938;2023-08-06T13:03:29;19.20;1.00
15452;DHT22;7827;53.594;9.938;2023-08-06T13:05:59;19.40;1.00
15452;DHT22;7827;53.594;9.938;2023-08-06T13:08:29;19.50;1.00
15452;DHT22;7827;53.594;9.938;2023-08-06T13:10:57;19.50;1.00
15452;DHT22;7827;53.594;9.938;2023-08-06T13:13:26;19.60;1.00
15452;DHT22;7827;53.594;9.938;2023-08-06T13:15:54;19.90;1.00
15452;DHT22;7827;53.594;9.938;2023-08-06T13:18:22;19.90;99.90
15452;DHT22;7827;53.594;9.938;2023-08-06T13:20:53;19.90;1.00
15452;DHT22;7827;53.594;9.938;2023-08-06T13:23:22;19.70;1.00
15452;DHT22;7827;53.594;9.938;2023-08-06T13:25:51;19.70;1.00
15452;DHT22;7827;53.594;9.938;2023-08-06T13:28:20;19.70;1.00
15452;DHT22;7827;53.594;9.938;2023-08-06T13:30:48;19.50;1.00
15452;DHT22;7827;53.594;9.938;2023-08-06T13:33:16;19.60;1.00
15452;DHT22;7827;53.594;9.938;2023-08-06T13:35:45;19.70;1.00
15452;DHT22;7827;53.594;9.938;2023-08-06T13:38:13;19.90;1.00
15452;DHT22;7827;53.594;9.938;2023-08-06T13:40:41;20.10;1.00
15452;DHT22;7827;53.594;9.938;2023-08-06T13:43:12;20.00;1.00
15452;DHT22;7827;53.594;9.938;2023-08-06T13:45:42;20.00;1.00
15452;DHT22;7827;53.594;9.938;2023-08-06T13:48:11;20.00;99.90
15452;DHT22;7827;53.594;9.938;2023-08-06T13:50:39;19.90;1.00
15452;DHT22;7827;53.594;9.938;2023-08-06T13:53:07;19.90;1.00
15452;DHT22;7827;53.594;9.938;2023-08-06T13:55:36;20.00;1.00
15452;DHT22;7827;53.594;9.938;2023-08-06T13:58:04;20.00;99.90
15452;DHT22;7827;53.594;9.938;2023-08-06T14:00:35;20.00;99.90
15452;DHT22;7827;53.594;9.938;2023-08-06T14:03:03;19.90;99.90
15452;DHT22;7827;53.594;9.938;2023-08-06T14:05:32;19.90;99.90
15452;DHT22;7827;53.594;9.938;2023-08-06T14:08:00;20.10;1.00
15452;DHT22;7827;53.594;9.938;2023-08-06T14:10:28;20.20;1.00
15452;DHT22;7827;53.594;9.938;2023-08-06T14:12:57;20.00;1.00
15452;DHT22;7827;53.594;9.938;2023-08-06T14:15:38;19.80;1.00
15452;DHT22;7827;53.594;9.938;2023-08-06T14:18:07;19.50;1.00
15452;DHT22;7827;53.594;9.938;2023-08-06T14:20:36;19.40;1.00
15452;DHT22;7827;53.594;9.938;2023-08-06T14:23:04;19.10;1.00
15452;DHT22;7827;53.594;9.938;2023-08-06T14:25:32;18.90;1.00
15452;DHT22;7827;53.594;9.938;2023-08-06T14:28:01;18.80;1.00
15452;DHT22;7827;53.594;9.938;2023-08-06T14:30:29;18.60;1.00
15452;DHT22;7827;53.594;9.938;2023-08-06T14:32:59;18.50;1.00
15452;DHT22;7827;53.594;9.938;2023-08-06T14:35:48;18.50;1.00
15452;DHT22;7827;53.594;9.938;2023-08-06T14:38:17;18.40;10.10
15452;DHT22;7827;53.594;9.938;2023-08-06T14:40:45;18.50;76.40
15452;DHT22;7827;53.594;9.938;2023-08-06T14:43:14;18.50;9.70
15452;DHT22;7827;53.594;9.938;2023-08-06T14:45:42;18.50;31.30
15452;DHT22;7827;53.594;9.938;2023-08-06T14:48:12;18.40;12.60
15452;DHT22;7827;53.594;9.938;2023-08-06T14:50:40;18.40;26.00
15452;DHT22;7827;53.594;9.938;2023-08-06T14:53:08;18.40;57.50
15452;DHT22;7827;53.594;9.938;2023-08-06T14:55:38;18.50;39.60
15452;DHT22;7827;53.594;9.938;2023-08-06T14:58:08;18.70;29.40
15452;DHT22;7827;53.594;9.938;2023-08-06T15:00:37;18.80;14.20
15452;DHT22;7827;53.594;9.938;2023-08-06T15:03:05;18.90;1.00
15452;DHT22;7827;53.594;9.938;2023-08-06T15:05:35;18.90;1.00
15452;DHT22;7827;53.594;9.938;2023-08-06T15:08:03;18.80;1.00
15452;DHT22;7827;53.594;9.938;2023-08-06T15:10:32;18.90;1.00
15452;DHT22;7827;53.594;9.938;2023-08-06T15:13:00;19.00;1.00
15452;DHT22;7827;53.594;9.938;2023-08-06T15:15:29;19.00;99.90
15452;DHT22;7827;53.594;9.938;2023-08-06T15:17:58;18.90;99.90
15452;DHT22;7827;53.594;9.938;2023-08-06T15:20:26;18.80;1.00
15452;DHT22;7827;53.594;9.938;2023-08-06T15:22:56;18.90;1.00
15452;DHT22;7827;53.594;9.938;2023-08-06T15:25:25;18.80;1.00
15452;DHT22;7827;53.594;9.938;2023-08-06T15:27:53;19.00;1.00
15452;DHT22;7827;53.594;9.938;2023-08-06T15:30:21;19.10;99.90
15452;DHT22;7827;53.594;9.938;2023-08-06T15:32:49;19.00;99.90
15452;DHT22;7827;53.594;9.938;2023-08-06T15:35:18;19.00;99.90
15452;DHT22;7827;53.594;9.938;2023-08-06T15:37:46;18.80;1.00
15452;DHT22;7827;53.594;9.938;2023-08-06T15:40:16;18.80;1.00
15452;DHT22;7827;53.594;9.938;2023-08-06T15:42:45;18.80;1.00
15452;DHT22;7827;53.594;9.938;2023-08-06T15:45:13;18.80;1.00
15452;DHT22;7827;53.594;9.938;2023-08-06T15:47:41;18.90;99.90
15452;DHT22;7827;53.594;9.938;2023-08-06T15:50:10;18.80;99.90
15452;DHT22;7827;53.594;9.938;2023-08-06T15:52:38;18.80;1.00
15452;DHT22;7827;53.594;9.938;2023-08-06T15:55:07;18.90;1.00
15452;DHT22;7827;53.594;9.938;2023-08-06T15:57:37;18.90;99.90
15452;DHT22;7827;53.594;9.938;2023-08-06T16:00:06;18.90;99.90
15452;DHT22;7827;53.594;9.938;2023-08-06T16:02:39;18.80;1.00
15452;DHT22;7827;53.594;9.938;2023-08-06T16:05:07;18.80;1.00
15452;DHT22;7827;53.594;9.938;2023-08-06T16:07:36;18.90;99.90